sensor_id;sensor_type;location;lat;lon;timestamp;pressure;altitude;pressure_sealevel;temperature
67509;BMP280;54354;44.724;11.284;2022-09-09T00:02:30;101126.28;;;26.11
67509;BMP280;54354;44.724;11.284;2022-09-09T00:05:04;101126.75;;;26.16
67509;BMP280;54354;44.724;11.284;2022-09-09T00:07:43;101131.22;;;26.13
67509;BMP280;54354;44.724;11.284;2022-09-09T00:15:31;101123.06;;;26.13
67509;BMP280;54354;44.724;11.284;2022-09-09T00:18:17;101123.81;;;26.14
67509;BMP280;54354;44.724;11.284;2022-09-09T00:20:52;101124.84;;;26.10
67509;BMP280;54354;44.724;11.284;2022-09-09T00:23:25;101125.78;;;26.13
67509;BMP280;54354;44.724;11.284;2022-09-09T00:25:59;101117.75;;;26.45
67509;BMP280;54354;44.724;11.284;2022-09-09T00:28:28;101125.22;;;26.20
67509;BMP280;54354;44.724;11.284;2022-09-09T00:31:11;101123.56;;;26.11
67509;BMP280;54354;44.724;11.284;2022-09-09T00:33:37;101117.66;;;26.13
67509;BMP280;54354;44.724;11.284;2022-09-09T00:36:11;101112.03;;;26.05
67509;BMP280;54354;44.724;11.284;2022-09-09T00:38:43;101114.75;;;26.05
67509;BMP280;54354;44.724;11.284;2022-09-09T00:44:33;101112.69;;;26.11
67509;BMP280;54354;44.724;11.284;2022-09-09T00:53:05;101119.22;;;26.03
67509;BMP280;54354;44.724;11.284;2022-09-09T00:58:15;101121.19;;;26.02
67509;BMP280;54354;44.724;11.284;2022-09-09T01:00:46;101120.00;;;25.98
67509;BMP280;54354;44.724;11.284;2022-09-09T01:11:25;101110.41;;;25.97
67509;BMP280;54354;44.724;11.284;2022-09-09T01:13:58;101123.22;;;25.96
67509;BMP280;54354;44.724;11.284;2022-09-09T01:16:28;101124.94;;;25.99
67509;BMP280;54354;44.724;11.284;2022-09-09T01:18:56;101132.84;;;25.97
67509;BMP280;54354;44.724;11.284;2022-09-09T01:21:50;101130.34;;;25.99
67509;BMP280;54354;44.724;11.284;2022-09-09T01:27:17;101127.69;;;25.94
67509;BMP280;54354;44.724;11.284;2022-09-09T01:29:43;101129.97;;;25.90
67509;BMP280;54354;44.724;11.284;2022-09-09T01:32:38;101129.44;;;25.91
67509;BMP280;54354;44.724;11.284;2022-09-09T01:35:09;101128.56;;;25.83
67509;BMP280;54354;44.724;11.284;2022-09-09T01:37:35;101131.72;;;25.87
67509;BMP280;54354;44.724;11.284;2022-09-09T01:40:01;101128.00;;;25.85
67509;BMP280;54354;44.724;11.284;2022-09-09T01:42:27;101123.13;;;25.83
67509;BMP280;54354;44.724;11.284;2022-09-09T01:44:53;101118.91;;;25.82
67509;BMP280;54354;44.724;11.284;2022-09-09T01:47:19;101124.88;;;25.80
67509;BMP280;54354;44.724;11.284;2022-09-09T01:50:07;101112.81;;;25.76
67509;BMP280;54354;44.724;11.284;2022-09-09T01:52:36;101112.31;;;25.77
67509;BMP280;54354;44.724;11.284;2022-09-09T01:55:05;101105.91;;;25.75
67509;BMP280;54354;44.724;11.284;2022-09-09T01:57:54;101106.94;;;25.72
67509;BMP280;54354;44.724;11.284;2022-09-09T02:00:21;101110.09;;;25.76
67509;BMP280;54354;44.724;11.284;2022-09-09T02:03:06;101101.50;;;25.72
67509;BMP280;54354;44.724;11.284;2022-09-09T02:08:50;101109.94;;;25.68
67509;BMP280;54354;44.724;11.284;2022-09-09T02:13:51;101104.56;;;25.57
67509;BMP280;54354;44.724;11.284;2022-09-09T02:16:44;101106.31;;;25.55
67509;BMP280;54354;44.724;11.284;2022-09-09T02:19:21;101106.59;;;25.51
67509;BMP280;54354;44.724;11.284;2022-09-09T02:22:03;101113.50;;;25.52
67509;BMP280;54354;44.724;11.284;2022-09-09T02:24:33;101108.63;;;25.45
67509;BMP280;54354;44.724;11.284;2022-09-09T02:27:12;101108.41;;;25.43
67509;BMP280;54354;44.724;11.284;2022-09-09T02:29:41;101106.44;;;25.38
67509;BMP280;54354;44.724;11.284;2022-09-09T02:32:14;101101.84;;;25.33
67509;BMP280;54354;44.724;11.284;2022-09-09T02:34:48;101103.06;;;25.32
67509;BMP280;54354;44.724;11.284;2022-09-09T02:37:18;101103.56;;;25.30
67509;BMP280;54354;44.724;11.284;2022-09-09T02:39:47;101108.47;;;25.32
67509;BMP280;54354;44.724;11.284;2022-09-09T02:42:17;101112.88;;;25.35
67509;BMP280;54354;44.724;11.284;2022-09-09T02:44:44;101109.72;;;25.31
67509;BMP280;54354;44.724;11.284;2022-09-09T02:50:17;101102.31;;;25.31
67509;BMP280;54354;44.724;11.284;2022-09-09T02:58:00;101102.59;;;25.28
67509;BMP280;54354;44.724;11.284;2022-09-09T03:00:28;101108.75;;;25.28
67509;BMP280;54354;44.724;11.284;2022-09-09T03:02:58;101111.47;;;25.28
67509;BMP280;54354;44.724;11.284;2022-09-09T03:05:24;101099.16;;;25.27
67509;BMP280;54354;44.724;11.284;2022-09-09T03:07:50;101105.06;;;25.26
67509;BMP280;54354;44.724;11.284;2022-09-09T03:10:18;101100.16;;;25.24
67509;BMP280;54354;44.724;11.284;2022-09-09T03:12:43;101097.94;;;25.23
67509;BMP280;54354;44.724;11.284;2022-09-09T03:15:09;101098.22;;;25.19
67509;BMP280;54354;44.724;11.284;2022-09-09T03:17:37;101097.97;;;25.17
67509;BMP280;54354;44.724;11.284;2022-09-09T03:20:05;101105.63;;;25.13
67509;BMP280;54354;44.724;11.284;2022-09-09T03:22:31;101112.53;;;25.14
67509;BMP280;54354;44.724;11.284;2022-09-09T03:24:59;101100.22;;;25.13
67509;BMP280;54354;44.724;11.284;2022-09-09T03:27:24;101102.94;;;25.13
67509;BMP280;54354;44.724;11.284;2022-09-09T03:29:51;101097.28;;;25.11
67509;BMP280;54354;44.724;11.284;2022-09-09T03:32:20;101096.81;;;25.07
67509;BMP280;54354;44.724;11.284;2022-09-09T03:34:48;101089.91;;;25.06
67509;BMP280;54354;44.724;11.284;2022-09-09T03:37:19;101093.13;;;25.04
67509;BMP280;54354;44.724;11.284;2022-09-09T03:39:45;101094.56;;;25.11
67509;BMP280;54354;44.724;11.284;2022-09-09T03:42:12;101098.50;;;25.10
67509;BMP280;54354;44.724;11.284;2022-09-09T03:44:40;101090.16;;;25.08
67509;BMP280;54354;44.724;11.284;2022-09-09T03:47:07;101100.75;;;25.06
67509;BMP280;54354;44.724;11.284;2022-09-09T03:49:33;101100.53;;;25.04
67509;BMP280;54354;44.724;11.284;2022-09-09T03:51:59;101090.16;;;25.02
67509;BMP280;54354;44.724;11.284;2022-09-09T03:54:26;101093.41;;;25.01
67509;BMP280;54354;44.724;11.284;2022-09-09T03:56:52;101090.97;;;24.97
67509;BMP280;54354;44.724;11.284;2022-09-09T03:59:18;101097.41;;;24.94
67509;BMP280;54354;44.724;11.284;2022-09-09T04:01:45;101091.47;;;24.90
67509;BMP280;54354;44.724;11.284;2022-09-09T04:04:12;101086.84;;;24.85
67509;BMP280;54354;44.724;11.284;2022-09-09T04:06:38;101092.25;;;24.85
67509;BMP280;54354;44.724;11.284;2022-09-09T04:09:04;101088.81;;;24.84
67509;BMP280;54354;44.724;11.284;2022-09-09T04:11:30;101091.28;;;24.82
67509;BMP280;54354;44.724;11.284;2022-09-09T04:13:58;101082.41;;;24.82
67509;BMP280;54354;44.724;11.284;2022-09-09T04:16:23;101081.66;;;24.81
67509;BMP280;54354;44.724;11.284;2022-09-09T04:18:50;101083.66;;;24.81
67509;BMP280;54354;44.724;11.284;2022-09-09T04:21:16;101082.94;;;24.80
67509;BMP280;54354;44.724;11.284;2022-09-09T04:23:42;101093.50;;;24.78
67509;BMP280;54354;44.724;11.284;2022-09-09T04:26:08;101092.75;;;24.78
67509;BMP280;54354;44.724;11.284;2022-09-09T04:28:35;101084.44;;;24.76
67509;BMP280;54354;44.724;11.284;2022-09-09T04:31:08;101087.38;;;24.72
67509;BMP280;54354;44.724;11.284;2022-09-09T04:33:35;101091.56;;;24.79
67509;BMP280;54354;44.724;11.284;2022-09-09T04:36:01;101086.38;;;24.81
67509;BMP280;54354;44.724;11.284;2022-09-09T04:38:26;101091.28;;;24.82
67509;BMP280;54354;44.724;11.284;2022-09-09T04:40:54;101082.88;;;24.86
67509;BMP280;54354;44.724;11.284;2022-09-09T04:43:20;101080.44;;;24.88
67509;BMP280;54354;44.724;11.284;2022-09-09T04:45:49;101086.06;;;24.90
67509;BMP280;54354;44.724;11.284;2022-09-09T04:48:14;101082.59;;;24.95
67509;BMP280;54354;44.724;11.284;2022-09-09T04:50:40;101079.59;;;24.99
67509;BMP280;54354;44.724;11.284;2022-09-09T04:53:08;101078.84;;;25.04
67509;BMP280;54354;44.724;11.284;2022-09-09T04:55:36;101086.22;;;25.09
67509;BMP280;54354;44.724;11.284;2022-09-09T04:58:05;101072.88;;;25.11
67509;BMP280;54354;44.724;11.284;2022-09-09T05:00:32;101078.50;;;25.18
67509;BMP280;54354;44.724;11.284;2022-09-09T05:03:03;101079.53;;;25.15
67509;BMP280;54354;44.724;11.284;2022-09-09T05:05:29;101081.41;;;25.26
67509;BMP280;54354;44.724;11.284;2022-09-09T05:08:03;101075.03;;;25.24
67509;BMP280;54354;44.724;11.284;2022-09-09T05:10:30;101076.44;;;25.30
67509;BMP280;54354;44.724;11.284;2022-09-09T05:12:57;101084.84;;;25.32
67509;BMP280;54354;44.724;11.284;2022-09-09T05:15:25;101095.16;;;25.34
67509;BMP280;54354;44.724;11.284;2022-09-09T05:17:51;101095.88;;;25.34
67509;BMP280;54354;44.724;11.284;2022-09-09T05:20:19;101095.16;;;25.34
67509;BMP280;54354;44.724;11.284;2022-09-09T05:22:45;101093.91;;;25.35
67509;BMP280;54354;44.724;11.284;2022-09-09T05:25:10;101096.13;;;25.36
67509;BMP280;54354;44.724;11.284;2022-09-09T05:27:36;101100.28;;;25.37
67509;BMP280;54354;44.724;11.284;2022-09-09T05:30:03;101090.72;;;25.36
67509;BMP280;54354;44.724;11.284;2022-09-09T05:32:30;101094.88;;;25.37
67509;BMP280;54354;44.724;11.284;2022-09-09T05:34:58;101110.94;;;25.35
67509;BMP280;54354;44.724;11.284;2022-09-09T05:37:24;101115.88;;;25.31
67509;BMP280;54354;44.724;11.284;2022-09-09T05:39:49;101116.88;;;25.28
67509;BMP280;54354;44.724;11.284;2022-09-09T05:42:16;101124.50;;;25.30
67509;BMP280;54354;44.724;11.284;2022-09-09T05:44:43;101123.28;;;25.31
67509;BMP280;54354;44.724;11.284;2022-09-09T05:47:10;101118.09;;;25.33
67509;BMP280;54354;44.724;11.284;2022-09-09T05:49:36;101120.81;;;25.33
67509;BMP280;54354;44.724;11.284;2022-09-09T05:52:02;101121.03;;;25.35
67509;BMP280;54354;44.724;11.284;2022-09-09T05:54:29;101125.25;;;25.30
67509;BMP280;54354;44.724;11.284;2022-09-09T05:56:55;101128.72;;;25.25
67509;BMP280;54354;44.724;11.284;2022-09-09T05:59:21;101126.28;;;25.22
67509;BMP280;54354;44.724;11.284;2022-09-09T06:01:50;101124.81;;;25.21
67509;BMP280;54354;44.724;11.284;2022-09-09T06:04:24;101122.38;;;25.17
67509;BMP280;54354;44.724;11.284;2022-09-09T06:06:50;101129.75;;;25.16
67509;BMP280;54354;44.724;11.284;2022-09-09T06:09:17;101124.34;;;25.16
67509;BMP280;54354;44.724;11.284;2022-09-09T06:11:43;101111.31;;;25.15
67509;BMP280;54354;44.724;11.284;2022-09-09T06:14:10;101119.91;;;25.13
67509;BMP280;54354;44.724;11.284;2022-09-09T06:16:37;101117.69;;;25.17
67509;BMP280;54354;44.724;11.284;2022-09-09T06:19:05;101111.03;;;25.18
67509;BMP280;54354;44.724;11.284;2022-09-09T06:21:33;101113.00;;;25.18
67509;BMP280;54354;44.724;11.284;2022-09-09T06:24:00;101111.72;;;25.25
67509;BMP280;54354;44.724;11.284;2022-09-09T06:26:27;101108.75;;;25.28
67509;BMP280;54354;44.724;11.284;2022-09-09T06:28:56;101109.44;;;25.34
67509;BMP280;54354;44.724;11.284;2022-09-09T06:31:28;101110.19;;;25.35
67509;BMP280;54354;44.724;11.284;2022-09-09T06:33:57;101099.81;;;25.39
67509;BMP280;54354;44.724;11.284;2022-09-09T06:36:32;101104.00;;;25.40
67509;BMP280;54354;44.724;11.284;2022-09-09T06:38:59;101110.13;;;25.40
67509;BMP280;54354;44.724;11.284;2022-09-09T06:41:27;101096.84;;;25.37
67509;BMP280;54354;44.724;11.284;2022-09-09T06:43:55;101096.28;;;25.44
67509;BMP280;54354;44.724;11.284;2022-09-09T06:46:29;101096.28;;;25.44
67509;BMP280;54354;44.724;11.284;2022-09-09T06:48:57;101093.84;;;25.46
67509;BMP280;54354;44.724;11.284;2022-09-09T06:51:26;101094.34;;;25.44
67509;BMP280;54354;44.724;11.284;2022-09-09T06:53:54;101085.16;;;25.53
67509;BMP280;54354;44.724;11.284;2022-09-09T06:56:33;101089.25;;;25.65
67509;BMP280;54354;44.724;11.284;2022-09-09T06:59:07;101085.97;;;25.72
67509;BMP280;54354;44.724;11.284;2022-09-09T07:01:37;101090.09;;;25.79
67509;BMP280;54354;44.724;11.284;2022-09-09T07:04:06;101105.06;;;25.86
67509;BMP280;54354;44.724;11.284;2022-09-09T07:06:43;101102.25;;;25.97
67509;BMP280;54354;44.724;11.284;2022-09-09T07:09:12;101101.72;;;26.04
67509;BMP280;54354;44.724;11.284;2022-09-09T07:11:43;101097.22;;;26.06
67509;BMP280;54354;44.724;11.284;2022-09-09T07:14:11;101103.34;;;26.13
67509;BMP280;54354;44.724;11.284;2022-09-09T07:16:42;101097.69;;;26.10
67509;BMP280;54354;44.724;11.284;2022-09-09T07:19:09;101100.81;;;26.15
67509;BMP280;54354;44.724;11.284;2022-09-09T07:21:36;101108.84;;;26.26
67509;BMP280;54354;44.724;11.284;2022-09-09T07:24:02;101099.56;;;26.40
67509;BMP280;54354;44.724;11.284;2022-09-09T07:26:29;101103.09;;;26.54
67509;BMP280;54354;44.724;11.284;2022-09-09T07:28:57;101103.53;;;26.77
67509;BMP280;54354;44.724;11.284;2022-09-09T07:33:53;101110.56;;;27.04
67509;BMP280;54354;44.724;11.284;2022-09-09T07:36:24;101110.25;;;27.08
67509;BMP280;54354;44.724;11.284;2022-09-09T07:38:54;101110.41;;;27.15
67509;BMP280;54354;44.724;11.284;2022-09-09T07:41:24;101110.63;;;27.17
67509;BMP280;54354;44.724;11.284;2022-09-09T07:43:51;101110.97;;;27.27
67509;BMP280;54354;44.724;11.284;2022-09-09T07:46:21;101108.66;;;27.31
67509;BMP280;54354;44.724;11.284;2022-09-09T07:48:49;101102.81;;;27.40
67509;BMP280;54354;44.724;11.284;2022-09-09T07:51:21;101101.81;;;27.56
67509;BMP280;54354;44.724;11.284;2022-09-09T07:53:53;101102.56;;;27.83
67509;BMP280;54354;44.724;11.284;2022-09-09T07:56:19;101107.16;;;28.01
67509;BMP280;54354;44.724;11.284;2022-09-09T07:58:48;101113.66;;;27.85
67509;BMP280;54354;44.724;11.284;2022-09-09T08:01:20;101108.84;;;27.65
67509;BMP280;54354;44.724;11.284;2022-09-09T08:03:52;101107.03;;;27.54
67509;BMP280;54354;44.724;11.284;2022-09-09T08:06:18;101111.31;;;27.63
67509;BMP280;54354;44.724;11.284;2022-09-09T08:08:44;101110.72;;;27.83
67509;BMP280;54354;44.724;11.284;2022-09-09T08:11:14;101109.25;;;28.09
67509;BMP280;54354;44.724;11.284;2022-09-09T08:13:42;101114.34;;;28.39
67509;BMP280;54354;44.724;11.284;2022-09-09T08:16:26;101123.31;;;28.60
67509;BMP280;54354;44.724;11.284;2022-09-09T08:18:52;101132.66;;;28.85
67509;BMP280;54354;44.724;11.284;2022-09-09T08:21:24;101122.69;;;28.88
67509;BMP280;54354;44.724;11.284;2022-09-09T08:23:52;101122.94;;;28.97
67509;BMP280;54354;44.724;11.284;2022-09-09T08:26:23;101117.78;;;29.07
67509;BMP280;54354;44.724;11.284;2022-09-09T08:28:51;101118.16;;;29.11
67509;BMP280;54354;44.724;11.284;2022-09-09T08:31:24;101116.72;;;29.10
67509;BMP280;54354;44.724;11.284;2022-09-09T08:33:50;101106.97;;;29.22
67509;BMP280;54354;44.724;11.284;2022-09-09T08:36:21;101111.03;;;29.29
67509;BMP280;54354;44.724;11.284;2022-09-09T08:38:52;101108.75;;;29.41
67509;BMP280;54354;44.724;11.284;2022-09-09T08:44:00;101105.94;;;29.54
67509;BMP280;54354;44.724;11.284;2022-09-09T08:46:59;101108.31;;;29.57
67509;BMP280;54354;44.724;11.284;2022-09-09T08:52:23;101109.97;;;29.60
67509;BMP280;54354;44.724;11.284;2022-09-09T08:54:51;101115.25;;;29.66
67509;BMP280;54354;44.724;11.284;2022-09-09T08:57:26;101105.84;;;29.67
67509;BMP280;54354;44.724;11.284;2022-09-09T08:59:54;101109.88;;;29.74
67509;BMP280;54354;44.724;11.284;2022-09-09T09:02:47;101116.78;;;29.75
67509;BMP280;54354;44.724;11.284;2022-09-09T09:07:55;101113.03;;;29.85
67509;BMP280;54354;44.724;11.284;2022-09-09T09:12:56;101107.22;;;29.89
67509;BMP280;54354;44.724;11.284;2022-09-09T09:15:31;101103.53;;;29.86
67509;BMP280;54354;44.724;11.284;2022-09-09T09:17:59;101104.69;;;29.91
67509;BMP280;54354;44.724;11.284;2022-09-09T09:20:43;101103.41;;;29.92
67509;BMP280;54354;44.724;11.284;2022-09-09T09:23:19;101089.22;;;29.93
67509;BMP280;54354;44.724;11.284;2022-09-09T09:25:46;101098.00;;;30.00
67509;BMP280;54354;44.724;11.284;2022-09-09T09:28:16;101096.34;;;29.97
67509;BMP280;54354;44.724;11.284;2022-09-09T09:33:26;101096.34;;;29.97
67509;BMP280;54354;44.724;11.284;2022-09-09T09:35:53;101100.31;;;29.95
67509;BMP280;54354;44.724;11.284;2022-09-09T09:38:23;101100.69;;;29.92
67509;BMP280;54354;44.724;11.284;2022-09-09T09:40:56;101098.16;;;29.94
67509;BMP280;54354;44.724;11.284;2022-09-09T09:43:40;101092.34;;;29.98
67509;BMP280;54354;44.724;11.284;2022-09-09T09:46:23;101093.78;;;29.99
67509;BMP280;54354;44.724;11.284;2022-09-09T09:49:00;101095.06;;;29.98
67509;BMP280;54354;44.724;11.284;2022-09-09T09:51:29;101097.25;;;29.99
67509;BMP280;54354;44.724;11.284;2022-09-09T09:56:32;101099.63;;;30.03
67509;BMP280;54354;44.724;11.284;2022-09-09T09:59:00;101099.06;;;30.04
67509;BMP280;54354;44.724;11.284;2022-09-09T10:01:33;101096.91;;;30.03
67509;BMP280;54354;44.724;11.284;2022-09-09T10:04:15;101092.69;;;30.02
67509;BMP280;54354;44.724;11.284;2022-09-09T10:06:41;101100.00;;;29.99
67509;BMP280;54354;44.724;11.284;2022-09-09T10:09:30;101093.41;;;29.94
67509;BMP280;54354;44.724;11.284;2022-09-09T10:20:16;101087.72;;;29.92
67509;BMP280;54354;44.724;11.284;2022-09-09T10:22:48;101084.44;;;29.86
67509;BMP280;54354;44.724;11.284;2022-09-09T10:31:12;101083.59;;;29.99
67509;BMP280;54354;44.724;11.284;2022-09-09T10:33:51;101077.22;;;30.04
67509;BMP280;54354;44.724;11.284;2022-09-09T10:39:04;101062.94;;;30.26
67509;BMP280;54354;44.724;11.284;2022-09-09T10:42:05;101066.59;;;30.29
67509;BMP280;54354;44.724;11.284;2022-09-09T10:45:01;101060.22;;;30.26
67509;BMP280;54354;44.724;11.284;2022-09-09T10:55:41;101062.59;;;30.60
67509;BMP280;54354;44.724;11.284;2022-09-09T10:58:14;101065.88;;;30.59
67509;BMP280;54354;44.724;11.284;2022-09-09T11:00:44;101061.50;;;30.56
67509;BMP280;54354;44.724;11.284;2022-09-09T11:03:18;101058.97;;;30.58
67509;BMP280;54354;44.724;11.284;2022-09-09T11:06:01;101059.34;;;30.62
67509;BMP280;54354;44.724;11.284;2022-09-09T11:08:32;101050.59;;;30.64
67509;BMP280;54354;44.724;11.284;2022-09-09T11:11:18;101048.59;;;30.72
67509;BMP280;54354;44.724;11.284;2022-09-09T11:21:52;101039.66;;;30.64
67509;BMP280;54354;44.724;11.284;2022-09-09T11:24:26;101036.72;;;30.61
67509;BMP280;54354;44.724;11.284;2022-09-09T11:27:25;101040.94;;;30.70
67509;BMP280;54354;44.724;11.284;2022-09-09T11:33:31;101038.19;;;30.85
67509;BMP280;54354;44.724;11.284;2022-09-09T11:38:47;101025.97;;;30.71
67509;BMP280;54354;44.724;11.284;2022-09-09T11:41:17;101034.53;;;30.75
67509;BMP280;54354;44.724;11.284;2022-09-09T11:43:51;101041.09;;;30.87
67509;BMP280;54354;44.724;11.284;2022-09-09T11:46:22;101031.59;;;30.81
67509;BMP280;54354;44.724;11.284;2022-09-09T11:49:04;101024.91;;;30.74
67509;BMP280;54354;44.724;11.284;2022-09-09T11:51:32;101030.72;;;30.71
67509;BMP280;54354;44.724;11.284;2022-09-09T11:54:00;101025.81;;;30.69
67509;BMP280;54354;44.724;11.284;2022-09-09T11:56:44;101017.22;;;30.65
67509;BMP280;54354;44.724;11.284;2022-09-09T11:59:21;101019.06;;;30.63
67509;BMP280;54354;44.724;11.284;2022-09-09T12:01:56;101022.88;;;30.59
67509;BMP280;54354;44.724;11.284;2022-09-09T12:09:55;101023.44;;;30.66
67509;BMP280;54354;44.724;11.284;2022-09-09T12:12:23;101022.69;;;30.65
67509;BMP280;54354;44.724;11.284;2022-09-09T12:17:44;101021.78;;;30.63
67509;BMP280;54354;44.724;11.284;2022-09-09T12:31:25;101029.06;;;30.45
67509;BMP280;54354;44.724;11.284;2022-09-09T12:33:53;101023.41;;;30.43
67509;BMP280;54354;44.724;11.284;2022-09-09T12:36:27;101030.69;;;30.33
67509;BMP280;54354;44.724;11.284;2022-09-09T12:38:54;101028.50;;;30.31
67509;BMP280;54354;44.724;11.284;2022-09-09T12:41:25;101031.06;;;30.29
67509;BMP280;54354;44.724;11.284;2022-09-09T12:44:02;101027.94;;;30.25
67509;BMP280;54354;44.724;11.284;2022-09-09T12:46:38;101035.06;;;30.20
67509;BMP280;54354;44.724;11.284;2022-09-09T12:49:17;101036.69;;;30.23
67509;BMP280;54354;44.724;11.284;2022-09-09T12:51:49;101036.88;;;30.25
67509;BMP280;54354;44.724;11.284;2022-09-09T12:54:15;101029.94;;;30.24
67509;BMP280;54354;44.724;11.284;2022-09-09T12:56:45;101029.38;;;30.18
67509;BMP280;54354;44.724;11.284;2022-09-09T12:59:36;101029.06;;;30.30
67509;BMP280;54354;44.724;11.284;2022-09-09T13:02:16;101020.47;;;30.25
67509;BMP280;54354;44.724;11.284;2022-09-09T13:04:42;101022.69;;;30.35
67509;BMP280;54354;44.724;11.284;2022-09-09T13:07:11;101021.94;;;30.34
67509;BMP280;54354;44.724;11.284;2022-09-09T13:09:37;101019.56;;;30.31
67509;BMP280;54354;44.724;11.284;2022-09-09T13:12:04;101017.41;;;30.29
67509;BMP280;54354;44.724;11.284;2022-09-09T13:14:35;101019.38;;;30.28
67509;BMP280;54354;44.724;11.284;2022-09-09T13:17:04;101016.66;;;30.28
67509;BMP280;54354;44.724;11.284;2022-09-09T13:19:33;101023.97;;;30.26
67509;BMP280;54354;44.724;11.284;2022-09-09T13:22:11;101024.47;;;30.24
67509;BMP280;54354;44.724;11.284;2022-09-09T13:24:38;101019.38;;;30.28
67509;BMP280;54354;44.724;11.284;2022-09-09T13:27:23;101017.56;;;30.31
67509;BMP280;54354;44.724;11.284;2022-09-09T13:29:54;101018.31;;;30.32
67509;BMP280;54354;44.724;11.284;2022-09-09T13:32:24;101017.38;;;30.37
67509;BMP280;54354;44.724;11.284;2022-09-09T13:34:57;101016.50;;;30.42
67509;BMP280;54354;44.724;11.284;2022-09-09T13:37:33;101013.75;;;30.42
67509;BMP280;54354;44.724;11.284;2022-09-09T13:40:00;101019.78;;;30.48
67509;BMP280;54354;44.724;11.284;2022-09-09T13:42:29;101011.75;;;30.42
67509;BMP280;54354;44.724;11.284;2022-09-09T13:44:57;101022.13;;;30.36
67509;BMP280;54354;44.724;11.284;2022-09-09T13:47:34;101013.94;;;30.36
67509;BMP280;54354;44.724;11.284;2022-09-09T13:50:20;101011.41;;;30.38
67509;BMP280;54354;44.724;11.284;2022-09-09T13:52:47;101014.47;;;30.42
67509;BMP280;54354;44.724;11.284;2022-09-09T13:55:14;101018.31;;;30.39
67509;BMP280;54354;44.724;11.284;2022-09-09T13:57:53;101018.88;;;30.38
67509;BMP280;54354;44.724;11.284;2022-09-09T14:00:20;101014.84;;;30.46
67509;BMP280;54354;44.724;11.284;2022-09-09T14:02:47;101019.03;;;30.47
67509;BMP280;54354;44.724;11.284;2022-09-09T14:05:13;101027.44;;;30.49
67509;BMP280;54354;44.724;11.284;2022-09-09T14:07:39;101018.50;;;30.49
67509;BMP280;54354;44.724;11.284;2022-09-09T14:10:06;101020.69;;;30.50
67509;BMP280;54354;44.724;11.284;2022-09-09T14:12:32;101019.97;;;30.50
67509;BMP280;54354;44.724;11.284;2022-09-09T14:14:58;101017.22;;;30.42
67509;BMP280;54354;44.724;11.284;2022-09-09T14:17:25;101012.84;;;30.39
67509;BMP280;54354;44.724;11.284;2022-09-09T14:19:52;101012.47;;;30.43
67509;BMP280;54354;44.724;11.284;2022-09-09T14:22:18;101009.59;;;30.41
67509;BMP280;54354;44.724;11.284;2022-09-09T14:24:44;101014.28;;;30.40
67509;BMP280;54354;44.724;11.284;2022-09-09T14:27:12;101003.22;;;30.38
67509;BMP280;54354;44.724;11.284;2022-09-09T14:29:38;101005.00;;;30.43
67509;BMP280;54354;44.724;11.284;2022-09-09T14:32:03;100994.44;;;30.40
67509;BMP280;54354;44.724;11.284;2022-09-09T14:34:29;101000.84;;;30.35
67509;BMP280;54354;44.724;11.284;2022-09-09T14:36:55;100997.53;;;30.36
67509;BMP280;54354;44.724;11.284;2022-09-09T14:39:20;101005.00;;;30.36
67509;BMP280;54354;44.724;11.284;2022-09-09T14:41:46;101005.38;;;30.32
67509;BMP280;54354;44.724;11.284;2022-09-09T14:44:11;101001.34;;;30.33
67509;BMP280;54354;44.724;11.284;2022-09-09T14:46:37;100994.81;;;30.36
67509;BMP280;54354;44.724;11.284;2022-09-09T14:49:03;101012.50;;;30.35
67509;BMP280;54354;44.724;11.284;2022-09-09T14:51:29;101012.66;;;30.30
67509;BMP280;54354;44.724;11.284;2022-09-09T14:53:57;101015.41;;;30.30
67509;BMP280;54354;44.724;11.284;2022-09-09T14:56:28;101017.56;;;30.31
67509;BMP280;54354;44.724;11.284;2022-09-09T14:58:55;101016.31;;;30.40
67509;BMP280;54354;44.724;11.284;2022-09-09T15:01:22;101035.44;;;30.47
67509;BMP280;54354;44.724;11.284;2022-09-09T15:03:54;101032.34;;;30.51
67509;BMP280;54354;44.724;11.284;2022-09-09T15:06:21;101029.63;;;30.58
67509;BMP280;54354;44.724;11.284;2022-09-09T15:08:47;101038.19;;;30.63
67509;BMP280;54354;44.724;11.284;2022-09-09T15:11:14;101020.88;;;30.60
67509;BMP280;54354;44.724;11.284;2022-09-09T15:13:41;101020.69;;;30.58
67509;BMP280;54354;44.724;11.284;2022-09-09T15:16:13;101021.41;;;30.58
67509;BMP280;54354;44.724;11.284;2022-09-09T15:18:39;101027.63;;;30.67
67509;BMP280;54354;44.724;11.284;2022-09-09T15:21:16;101018.16;;;30.68
67509;BMP280;54354;44.724;11.284;2022-09-09T15:23:42;101025.06;;;30.69
67509;BMP280;54354;44.724;11.284;2022-09-09T15:26:08;101019.41;;;30.67
67509;BMP280;54354;44.724;11.284;2022-09-09T15:28:36;101013.41;;;30.68
67509;BMP280;54354;44.724;11.284;2022-09-09T15:31:14;101017.22;;;30.73
67509;BMP280;54354;44.724;11.284;2022-09-09T15:33:40;101016.69;;;30.74
67509;BMP280;54354;44.724;11.284;2022-09-09T15:36:23;101013.41;;;30.68
67509;BMP280;54354;44.724;11.284;2022-09-09T15:38:49;101014.31;;;30.71
67509;BMP280;54354;44.724;11.284;2022-09-09T15:41:16;101021.78;;;30.70
67509;BMP280;54354;44.724;11.284;2022-09-09T15:43:46;101010.69;;;30.68
67509;BMP280;54354;44.724;11.284;2022-09-09T15:46:32;101010.09;;;30.70
67509;BMP280;54354;44.724;11.284;2022-09-09T15:51:28;101020.34;;;30.61
67509;BMP280;54354;44.724;11.284;2022-09-09T15:53:57;101008.84;;;30.55
67509;BMP280;54354;44.724;11.284;2022-09-09T15:56:28;101019.06;;;30.55
67509;BMP280;54354;44.724;11.284;2022-09-09T15:58:56;101026.16;;;30.58
67509;BMP280;54354;44.724;11.284;2022-09-09T16:01:22;101028.34;;;30.59
67509;BMP280;54354;44.724;11.284;2022-09-09T16:03:48;101028.53;;;30.61
67509;BMP280;54354;44.724;11.284;2022-09-09T16:06:22;101019.41;;;30.51